Time;durP1;ratioP1;P1;durP2;ratioP2;P2;SDS_P1;SDS_P2;PMS_P1;PMS_P2;Temp;Humidity;BMP_temperature;BMP_pressure;BME280_temperature;BME280_humidity;BME280_pressure;Samples;Min_cycle;Max_cycle;Signal;HPM_P1;HPM_P2
2022/06/24 00:01:56;;;;;;;;;5.00;5.00;;;;;-146.67;59.35;73110.63;5042962;28;62037;-74
2022/06/24 00:04:27;;;;;;;;;3.00;3.00;;;;;-146.67;60.77;73154.53;5043478;28;61900;-74
2022/06/24 00:06:52;;;;;;;;;2.67;2.67;;;;;-146.67;64.64;73160.50;5043878;28;61751;-74
2022/06/24 00:09:19;;;;;;;;;7.00;4.00;;;;;-146.67;64.28;73180.47;5043061;28;61791;-74
2022/06/24 00:11:44;;;;;;;;;3.00;3.00;;;;;-146.67;65.81;73172.50;5043299;28;62066;-74
2022/06/24 00:14:17;;;;;;;;;2.25;2.25;;;;;-146.67;64.65;73180.47;5043578;28;61850;-74
2022/06/24 00:16:57;;;;;;;;;3.75;3.75;;;;;-146.67;64.88;73194.44;5024826;28;62110;-74
2022/06/24 00:19:25;;;;;;;;;3.67;3.67;;;;;-146.67;64.64;73178.47;5024768;28;64085;-73
2022/06/24 00:22:03;;;;;;;;;5.00;3.00;;;;;-146.67;64.96;73172.50;5042083;28;61944;-73
2022/06/24 00:24:30;;;;;;;;;3.25;3.25;;;;;-146.67;64.56;73192.44;5042973;28;62017;-74
2022/06/24 00:26:56;;;;;;;;;4.25;4.25;;;;;-146.67;63.98;73202.44;5043365;28;62194;-73
2022/06/24 00:29:25;;;;;;;;;3.75;3.25;;;;;-146.67;64.58;73188.47;5042463;28;61786;-74
2022/06/24 00:32:07;;;;;;;;;4.75;3.75;;;;;-146.67;64.29;73182.47;5024537;28;61950;-74
2022/06/24 00:34:38;;;;;;;;;3.67;3.67;;;;;-146.67;64.07;73184.47;5024921;28;61877;-73
2022/06/24 00:37:30;;;;;;;;;5.50;5.25;;;;;-146.67;64.84;73212.41;5043334;28;62061;-73
2022/06/24 00:39:58;;;;;;;;;2.75;2.75;;;;;-146.67;63.22;73172.50;5042341;28;62054;-73
2022/06/24 00:42:25;;;;;;;;;4.00;4.00;;;;;-146.67;63.74;73164.50;5042716;28;61934;-74
2022/06/24 00:45:15;;;;;;;;;3.50;3.00;;;;;-146.67;64.01;73186.47;5024733;28;61975;-74
2022/06/24 00:47:42;;;;;;;;;3.00;3.00;;;;;-146.67;64.54;73174.50;5024361;28;61969;-73
2022/06/24 00:50:36;;;;;;;;;2.00;2.00;;;;;-146.67;63.19;73190.44;5042471;28;62789;-74
2022/06/24 00:53:02;;;;;;;;;5.00;3.00;;;;;-146.67;58.85;73202.44;5022492;28;61725;-74
2022/06/24 00:55:31;;;;;;;;;4.00;3.00;;;;;-146.67;47.21;73226.38;5042678;28;61847;-74
2022/06/24 00:57:58;;;;;;;;;3.33;2.67;;;;;-146.67;46.23;73204.44;5043090;28;62194;-73
2022/06/24 01:00:26;;;;;;;;;3.00;3.00;;;;;-146.67;45.26;73188.47;5041404;28;61888;-74
2022/06/24 01:03:00;;;;;;;;;4.00;4.00;;;;;-146.67;44.48;73182.47;5042314;28;61901;-74
2022/06/24 01:05:27;;;;;;;;;2.50;2.25;;;;;-146.67;46.03;73178.47;5042798;28;61807;-73
2022/06/24 01:07:52;;;;;;;;;5.00;3.00;;;;;-146.67;45.48;73168.50;5042563;28;61716;-73
2022/06/24 01:10:18;;;;;;;;;2.50;2.50;;;;;-146.67;45.12;73158.53;5024121;28;63367;-73
2022/06/24 01:12:43;;;;;;;;;3.25;2.00;;;;;-146.67;43.96;73156.53;5042435;28;61812;-73
2022/06/24 01:15:09;;;;;;;;;4.00;4.00;;;;;-146.67;43.50;73160.50;5042474;28;61686;-74
2022/06/24 01:17:37;;;;;;;;;2.00;2.00;;;;;-146.67;43.67;73142.56;5024251;28;61869;-73
2022/06/24 01:20:03;;;;;;;;;2.00;2.00;;;;;-146.67;42.65;73162.50;5023922;28;64081;-73
2022/06/24 01:22:29;;;;;;;;;2.00;2.00;;;;;-146.67;42.16;73140.56;5024321;28;61704;-73
2022/06/24 01:24:54;;;;;;;;;3.00;3.00;;;;;-146.67;42.38;73136.56;5024192;28;62435;-73
2022/06/24 01:27:20;;;;;;;;;2.75;2.00;;;;;-146.67;41.53;73132.56;5024934;28;62651;-73
2022/06/24 01:29:46;;;;;;;;;4.25;3.00;;;;;-146.67;40.86;73142.56;5022928;28;63670;-73
2022/06/24 01:32:12;;;;;;;;;1.25;1.25;;;;;-146.67;41.09;73142.56;5023715;28;61977;-73
2022/06/24 01:34:38;;;;;;;;;4.00;3.00;;;;;-146.67;40.78;73150.53;5042066;28;61848;-73
2022/06/24 01:37:05;;;;;;;;;3.25;2.25;;;;;-146.67;40.99;73150.53;5042411;28;61818;-73
2022/06/24 01:39:30;;;;;;;;;2.50;2.50;;;;;-146.67;41.67;73166.50;5041510;28;63103;-73
2022/06/24 01:41:57;;;;;;;;;3.33;3.00;;;;;-146.67;41.85;73170.50;5041969;28;61828;-73
2022/06/24 01:44:22;;;;;;;;;5.67;4.00;;;;;-146.67;42.04;73174.50;5041868;28;62483;-73
2022/06/24 01:46:49;;;;;;;;;3.25;3.00;;;;;-146.67;41.68;73178.47;5041675;28;62397;-74
2022/06/24 01:49:14;;;;;;;;;2.33;2.33;;;;;-146.67;41.69;73204.44;5041607;28;61839;-73
2022/06/24 01:51:43;;;;;;;;;2.50;2.50;;;;;-146.67;41.63;73234.38;5041703;28;61912;-74
2022/06/24 01:54:08;;;;;;;;;9.25;6.00;;;;;-146.67;67.64;73280.25;5042106;28;61930;-74
2022/06/24 01:56:34;;;;;;;;;0.00;0.00;;;;;-146.67;91.23;72092.91;5024455;28;62133;-74
2022/06/24 01:59:00;;;;;;;;;0.00;0.00;;;;;-146.67;85.72;72264.50;5041130;28;62060;-74
2022/06/24 02:01:25;;;;;;;;;0.00;0.00;;;;;-146.67;65.36;72388.22;5041904;28;62200;-74
2022/06/24 02:03:51;;;;;;;;;0.00;0.00;;;;;-146.67;63.48;72428.13;5023931;28;62244;-74
2022/06/24 02:06:17;;;;;;;;;0.00;0.00;;;;;-146.67;65.54;72462.06;5024591;28;61816;-74
2022/06/24 02:08:43;;;;;;;;;0.00;0.00;;;;;-146.67;64.91;72490.00;5041403;28;62058;-74
2022/06/24 02:13:56;;;;;;;;;0.00;0.00;;;;;-146.67;64.88;72521.91;5041495;28;62032;-74
2022/06/24 02:16:22;;;;;;;;;0.00;0.00;;;;;-146.67;63.49;72559.84;5042058;28;61920;-74
2022/06/24 02:18:48;;;;;;;;;0.00;0.00;;;;;-146.67;64.63;72561.81;5041305;28;63094;-74
2022/06/24 02:21:14;;;;;;;;;0.00;0.00;;;;;-146.67;66.01;72549.84;5041915;28;61951;-74
2022/06/24 02:23:40;;;;;;;;;0.00;0.00;;;;;-146.67;64.42;72561.81;5041600;28;61996;-72
2022/06/24 02:26:06;;;;;;;;;0.00;0.00;;;;;-146.67;64.39;72567.81;5041953;28;62108;-71
2022/06/24 02:28:31;;;;;;;;;0.00;0.00;;;;;-146.67;64.01;72587.78;5022645;28;63322;-72
2022/06/24 02:30:59;;;;;;;;;0.00;0.00;;;;;-146.67;63.11;72615.72;5041389;28;61981;-72
2022/06/24 02:33:25;;;;;;;;;0.00;0.00;;;;;-146.67;63.19;72611.72;5041258;28;61891;-72
2022/06/24 02:35:51;;;;;;;;;0.00;0.00;;;;;-146.67;61.94;72607.72;5023142;28;61936;-72
2022/06/24 02:38:16;;;;;;;;;0.00;0.00;;;;;-146.67;59.28;72603.72;5040706;28;61877;-72
2022/06/24 02:40:45;;;;;;;;;0.00;0.00;;;;;-146.67;58.43;72575.78;5041505;28;61744;-72
2022/06/24 02:43:33;;;;;;;;;0.00;0.00;;;;;-146.67;53.71;72561.81;5023594;28;62203;-72
2022/06/24 02:46:01;;;;;;;;;0.00;0.00;;;;;-146.67;50.87;72579.78;5044553;28;62133;-73
2022/06/24 02:48:28;;;;;;;;;0.00;0.00;;;;;-146.67;49.46;72565.81;5044162;28;62976;-73
2022/06/24 02:50:58;;;;;;;;;0.00;0.00;;;;;-146.67;47.81;72591.75;5044786;28;61688;-73
2022/06/24 02:53:24;;;;;;;;;0.00;0.00;;;;;-146.67;49.00;72595.75;5044939;28;61904;-73
2022/06/24 02:55:52;;;;;;;;;0.00;0.00;;;;;-146.67;45.62;72589.75;5044946;28;61963;-73
2022/06/24 02:58:18;;;;;;;;;0.00;0.00;;;;;-146.67;47.06;72589.75;5044157;28;62217;-73
2022/06/24 03:00:43;;;;;;;;;0.00;0.00;;;;;-146.67;45.59;72567.81;5044114;28;61859;-74
2022/06/24 03:03:10;;;;;;;;;0.00;0.00;;;;;-146.67;46.25;72565.81;5044725;28;61829;-73
2022/06/24 03:05:36;;;;;;;;;0.00;0.00;;;;;-146.67;44.72;72573.81;5044925;28;61989;-73
2022/06/24 03:08:02;;;;;;;;;0.00;0.00;;;;;-146.67;44.73;72585.78;5044135;28;61819;-73
2022/06/24 03:10:27;;;;;;;;;0.00;0.00;;;;;-146.67;44.62;72593.75;5026430;28;61828;-73
2022/06/24 03:12:53;;;;;;;;;0.00;0.00;;;;;-146.67;44.50;72589.75;5044336;28;61786;-73
2022/06/24 03:15:19;;;;;;;;;0.00;0.00;;;;;-146.67;43.69;72579.78;5026806;28;61847;-73
2022/06/24 03:17:45;;;;;;;;;0.00;0.00;;;;;-146.67;44.14;72559.84;5043920;28;63272;-73
2022/06/24 03:20:10;;;;;;;;;0.00;0.00;;;;;-146.67;43.00;72569.81;5026349;28;61829;-73
2022/06/24 03:22:37;;;;;;;;;0.00;0.00;;;;;-146.67;43.04;72579.78;5026586;28;62037;-73
2022/06/24 03:25:03;;;;;;;;;0.00;0.00;;;;;-146.67;44.93;72591.75;5026190;28;61996;-73
2022/06/24 03:27:28;;;;;;;;;0.00;0.00;;;;;-146.67;44.88;72579.78;5044400;28;62186;-73
2022/06/24 03:29:54;;;;;;;;;0.00;0.00;;;;;-146.67;45.49;72567.81;5044170;28;61736;-73
2022/06/24 03:32:20;;;;;;;;;0.00;0.00;;;;;-146.67;45.17;72579.78;5044073;28;61863;-73
2022/06/24 03:34:45;;;;;;;;;0.00;0.00;;;;;-146.67;43.51;72577.78;5044708;28;61875;-73
2022/06/24 03:37:11;;;;;;;;;0.00;0.00;;;;;-146.67;43.28;72573.81;5025683;28;64020;-73
2022/06/24 03:39:36;;;;;;;;;0.00;0.00;;;;;-146.67;44.73;72563.81;5044165;28;61835;-74
2022/06/24 03:42:03;;;;;;;;;0.00;0.00;;;;;-146.67;44.81;72551.84;5044217;28;61945;-74
2022/06/24 03:44:29;;;;;;;;;0.00;0.00;;;;;-146.67;41.79;72545.88;5044437;28;61965;-73
2022/06/24 03:46:54;;;;;;;;;0.00;0.00;;;;;-146.67;41.85;72545.88;5025029;28;65226;-74
2022/06/24 03:49:19;;;;;;;;;0.00;0.00;;;;;-146.67;42.18;72557.84;5026231;28;61979;-74
2022/06/24 03:51:48;;;;;;;;;0.00;0.00;;;;;-146.67;43.22;72553.84;5026229;28;62074;-74
2022/06/24 03:54:14;;;;;;;;;0.00;0.00;;;;;-146.67;42.60;72579.78;5043539;28;62201;-74
2022/06/24 03:56:40;;;;;;;;;0.00;0.00;;;;;-146.67;42.35;72575.78;5043486;28;61876;-74
2022/06/24 03:59:05;;;;;;;;;0.00;0.00;;;;;-146.67;42.60;72589.75;5025458;28;61952;-74
2022/06/24 04:01:31;;;;;;;;;0.00;0.00;;;;;-146.67;41.93;72591.75;5043648;28;62128;-74
2022/06/24 04:03:56;;;;;;;;;0.00;0.00;;;;;-146.67;43.09;72597.75;5044024;28;62046;-73
2022/06/24 04:06:22;;;;;;;;;0.00;0.00;;;;;-146.67;43.00;72597.75;5043251;28;62331;-73
2022/06/24 04:08:47;;;;;;;;;0.00;0.00;;;;;-146.67;41.42;72599.75;5043768;28;62012;-73
2022/06/24 04:11:15;;;;;;;;;0.00;0.00;;;;;-146.67;42.63;72615.72;5025646;28;61893;-74
2022/06/24 04:13:41;;;;;;;;;0.00;0.00;;;;;-146.67;42.87;72599.75;5043751;28;61968;-73
2022/06/24 04:16:07;;;;;;;;;0.00;0.00;;;;;-146.67;43.19;72595.75;5025105;28;63781;-73
2022/06/24 04:18:33;;;;;;;;;4.00;3.00;;;;;-146.67;42.72;72625.69;5025063;28;62183;-73
2022/06/24 04:20:59;;;;;;;;;4.00;4.00;;;;;-146.67;42.99;72645.63;5025606;28;61904;-73
2022/06/24 04:23:24;;;;;;;;;1.00;1.00;;;;;-146.67;42.46;72669.59;5043174;28;61937;-73
2022/06/24 04:25:50;;;;;;;;;5.25;4.00;;;;;-146.67;42.55;72673.56;5024954;28;63567;-73
2022/06/24 04:28:16;;;;;;;;;3.25;3.00;;;;;-146.67;42.63;72699.53;5043044;28;62397;-73
2022/06/24 04:30:42;;;;;;;;;2.67;2.67;;;;;-146.67;41.78;72713.47;5043350;28;61992;-73
2022/06/24 04:33:08;;;;;;;;;2.00;2.00;;;;;-146.67;41.65;72757.38;5024840;28;61878;-73
2022/06/24 04:35:33;;;;;;;;;3.67;2.00;;;;;-146.67;40.35;72795.31;5042490;28;62898;-73
2022/06/24 04:37:58;;;;;;;;;3.33;2.00;;;;;-146.67;42.52;72777.34;5042949;28;61763;-73
2022/06/24 04:40:24;;;;;;;;;0.00;0.00;;;;;-146.67;42.83;72769.38;5043052;28;62390;-73
2022/06/24 04:42:50;;;;;;;;;0.00;0.00;;;;;-146.67;43.53;72741.44;5043628;28;62034;-73
2022/06/24 04:45:16;;;;;;;;;0.00;0.00;;;;;-146.67;41.82;72703.50;5024503;28;63135;-73
2022/06/24 04:47:42;;;;;;;;;0.00;0.00;;;;;-146.67;42.60;72679.56;5024894;28;61869;-73
2022/06/24 04:50:08;;;;;;;;;0.00;0.00;;;;;-146.67;43.25;72655.63;5043200;28;61861;-73
2022/06/24 04:52:35;;;;;;;;;0.00;0.00;;;;;-146.67;41.96;72633.66;5043075;28;61831;-73
2022/06/24 04:55:01;;;;;;;;;0.00;0.00;;;;;-146.67;42.19;72639.66;5042413;28;62120;-73
2022/06/24 04:57:26;;;;;;;;;0.00;0.00;;;;;-146.67;41.59;72655.63;5042909;28;61771;-73
2022/06/24 04:59:52;;;;;;;;;0.00;0.00;;;;;-146.67;41.71;72649.63;5042969;28;61983;-73
2022/06/24 05:02:17;;;;;;;;;0.00;0.00;;;;;-146.67;40.70;72655.63;5042691;28;62057;-73
2022/06/24 05:04:43;;;;;;;;;0.00;0.00;;;;;-146.67;41.57;72639.66;5042503;28;62008;-74
2022/06/24 05:07:08;;;;;;;;;0.00;0.00;;;;;-146.67;41.48;72623.69;5042463;28;61853;-75
2022/06/24 05:09:34;;;;;;;;;0.00;0.00;;;;;-146.67;40.89;72587.78;5042851;28;61929;-75
2022/06/24 05:12:05;;;;;;;;;0.00;0.00;;;;;-146.67;40.73;72595.75;5025353;28;61822;-76
2022/06/24 05:14:33;;;;;;;;;0.00;0.00;;;;;-146.67;39.77;72581.78;5023791;28;63794;-75
2022/06/24 05:16:59;;;;;;;;;0.00;0.00;;;;;-146.67;40.23;72565.81;5024480;28;62220;-75
2022/06/24 05:19:25;;;;;;;;;0.00;0.00;;;;;-146.67;40.56;72553.84;5042895;28;62083;-75
2022/06/24 05:21:51;;;;;;;;;0.00;0.00;;;;;-146.67;39.93;72573.81;5042769;28;61724;-75
2022/06/24 05:24:16;;;;;;;;;0.00;0.00;;;;;-146.67;39.32;72569.81;5041741;28;62489;-75
2022/06/24 05:26:43;;;;;;;;;0.00;0.00;;;;;-146.67;39.78;72545.88;5042581;28;61935;-76
2022/06/24 05:29:08;;;;;;;;;0.00;0.00;;;;;-146.67;38.90;72525.91;5042397;28;61984;-76
2022/06/24 05:31:34;;;;;;;;;0.00;0.00;;;;;-146.67;39.29;72495.97;5024451;28;61954;-76
2022/06/24 05:33:59;;;;;;;;;0.00;0.00;;;;;-146.67;38.25;72476.03;5023963;28;63885;-76
2022/06/24 05:36:25;;;;;;;;;0.00;0.00;;;;;-146.67;38.51;72444.09;5024350;28;62041;-76
2022/06/24 05:38:51;;;;;;;;;0.00;0.00;;;;;-146.67;37.95;72456.06;5040856;28;61947;-75
2022/06/24 05:41:17;;;;;;;;;0.00;0.00;;;;;-146.67;38.36;72468.03;5024324;28;61925;-79
2022/06/24 05:43:44;;;;;;;;;0.00;0.00;;;;;-146.67;37.55;72452.06;5022162;28;63501;-75
2022/06/24 05:46:10;;;;;;;;;0.00;0.00;;;;;-146.67;37.54;72452.06;5040258;28;62071;-74
2022/06/24 05:48:36;;;;;;;;;0.00;0.00;;;;;-146.67;37.14;72464.06;5021739;28;61988;-74
2022/06/24 05:51:12;;;;;;;;;0.00;0.00;;;;;-146.67;37.11;72507.94;5022467;28;62260;-74
2022/06/24 05:56:22;;;;;;;;;0.00;0.00;;;;;-146.67;37.24;72501.97;5040318;28;63091;-74
2022/06/24 05:58:48;;;;;;;;;0.00;0.00;;;;;-146.67;37.89;72488.00;5041610;28;61823;-74
2022/06/24 06:01:14;;;;;;;;;0.00;0.00;;;;;-146.67;37.74;72472.03;5024067;28;61998;-74
2022/06/24 06:03:40;;;;;;;;;0.00;0.00;;;;;-146.67;36.98;72490.00;5040998;28;63264;-75
2022/06/24 06:06:07;;;;;;;;;0.00;0.00;;;;;-146.67;37.55;72501.97;5024015;28;61811;-75
2022/06/24 06:08:36;;;;;;;;;0.00;0.00;;;;;-146.67;36.82;72490.00;5023903;28;61885;-75
2022/06/24 06:11:10;;;;;;;;;0.00;0.00;;;;;-146.67;37.09;72511.94;5042405;28;61690;-75
2022/06/24 06:13:35;;;;;;;;;0.00;0.00;;;;;-146.67;36.88;72521.91;5041070;28;61854;-73
2022/06/24 06:16:01;;;;;;;;;0.00;0.00;;;;;-146.67;37.18;72531.91;5024114;28;61818;-74
2022/06/24 06:18:26;;;;;;;;;0.00;0.00;;;;;-146.67;36.48;72533.88;5023280;28;62637;-74
2022/06/24 06:20:51;;;;;;;;;0.00;0.00;;;;;-146.67;37.45;72539.88;5045229;28;61785;-74
2022/06/24 06:23:17;;;;;;;;;0.00;0.00;;;;;-146.67;37.20;72543.88;5044941;28;61932;-74
2022/06/24 06:25:42;;;;;;;;;0.00;0.00;;;;;-146.67;36.02;72553.84;5025553;28;61988;-76
2022/06/24 06:28:08;;;;;;;;;0.00;0.00;;;;;-146.67;36.22;72549.84;5045595;28;61743;-77
2022/06/24 06:30:33;;;;;;;;;0.00;0.00;;;;;-146.67;36.66;72543.88;5026949;28;62336;-78
2022/06/24 06:32:59;;;;;;;;;0.00;0.00;;;;;-146.67;36.56;72545.88;5044249;28;63050;-77
2022/06/24 06:35:24;;;;;;;;;0.00;0.00;;;;;-146.67;36.96;72535.88;5045035;28;61882;-79
2022/06/24 06:37:49;;;;;;;;;0.00;0.00;;;;;-146.67;36.49;72529.91;5045083;28;61841;-76
2022/06/24 06:40:15;;;;;;;;;0.00;0.00;;;;;-146.67;36.42;72527.91;5027526;28;61894;-76
2022/06/24 06:42:41;;;;;;;;;0.00;0.00;;;;;-146.67;35.84;72521.91;5044285;28;61918;-75
2022/06/24 06:45:07;;;;;;;;;0.00;0.00;;;;;-146.67;35.75;72507.94;5044971;28;61968;-75
2022/06/24 06:47:33;;;;;;;;;0.00;0.00;;;;;-146.67;36.12;72478.03;5026318;28;62038;-76
2022/06/24 06:49:59;;;;;;;;;0.00;0.00;;;;;-146.67;35.92;72472.03;5044551;28;62050;-73
2022/06/24 06:52:24;;;;;;;;;0.00;0.00;;;;;-146.67;35.97;72458.06;5025195;28;63486;-73
2022/06/24 06:54:49;;;;;;;;;0.00;0.00;;;;;-146.67;35.72;72452.06;5058524;28;62163;-73
2022/06/24 06:57:15;;;;;;;;;9.00;9.00;;;;;-146.67;34.79;72460.06;5025903;28;61775;-73
2022/06/24 06:59:40;;;;;;;;;0.00;0.00;;;;;-146.67;35.47;72428.13;5043973;28;62067;-74
2022/06/24 07:02:06;;;;;;;;;0.00;0.00;;;;;-146.67;35.16;72432.13;5025246;28;64962;-74
2022/06/24 07:04:31;;;;;;;;;0.00;0.00;;;;;-146.67;34.76;72438.09;5026571;28;62163;-76
2022/06/24 07:06:57;;;;;;;;;0.00;0.00;;;;;-146.67;34.50;72424.13;5026719;28;61775;-75
2022/06/24 07:09:22;;;;;;;;;0.00;0.00;;;;;-146.67;34.85;72416.16;5027037;28;62143;-75
2022/06/24 07:11:48;;;;;;;;;0.00;0.00;;;;;-146.67;34.11;72416.16;5043898;28;61794;-76
2022/06/24 07:14:13;;;;;;;;;0.00;0.00;;;;;-146.67;34.39;72404.19;5044347;28;61834;-75
2022/06/24 07:16:38;;;;;;;;;0.00;0.00;;;;;-146.67;35.04;72394.22;5043839;28;61826;-76
2022/06/24 07:19:04;;;;;;;;;0.00;0.00;;;;;-146.67;35.02;72384.22;5026697;28;61754;-76
2022/06/24 07:21:29;;;;;;;;;0.00;0.00;;;;;-146.67;34.02;72362.28;5026065;28;63992;-79
2022/06/24 07:23:55;;;;;;;;;0.00;0.00;;;;;-146.67;34.50;72342.34;5044511;28;61794;-80
2022/06/24 07:26:21;;;;;;;;;0.00;0.00;;;;;-146.67;33.88;72312.41;5022875;28;62177;-78
2022/06/24 07:28:46;;;;;;;;;0.00;0.00;;;;;-146.67;33.79;72298.44;5023047;28;61813;-78
2022/06/24 07:31:17;;;;;;;;;0.00;0.00;;;;;-146.67;33.53;72290.44;5005568;28;64123;-77
2022/06/24 07:33:42;;;;;;;;;0.00;0.00;;;;;-146.67;32.96;72286.47;5034676;28;62139;-75
2022/06/24 07:36:08;;;;;;;;;0.00;0.00;;;;;-146.67;33.51;72248.56;5026405;28;61912;-74
2022/06/24 07:38:33;;;;;;;;;0.00;0.00;;;;;-146.67;33.01;72252.53;5044394;28;61838;-75
2022/06/24 07:40:59;;;;;;;;;0.00;0.00;;;;;-146.67;32.19;72220.63;5043623;28;62552;-75
2022/06/24 07:43:24;;;;;;;;;0.00;0.00;;;;;-146.67;32.77;72194.69;5044474;28;61898;-76
2022/06/24 07:45:51;;;;;;;;;0.00;0.00;;;;;-146.67;32.72;72186.69;5025998;28;61847;-74
2022/06/24 07:48:17;;;;;;;;;0.00;0.00;;;;;-146.67;32.62;72188.69;5026004;28;61993;-75
2022/06/24 07:50:42;;;;;;;;;0.00;0.00;;;;;-146.67;32.36;72204.66;5043241;28;62078;-75
2022/06/24 07:53:08;;;;;;;;;0.00;0.00;;;;;-146.67;32.68;72226.59;5043817;28;61993;-75
2022/06/24 07:58:17;;;;;;;;;0.00;0.00;;;;;-146.67;33.15;72256.53;5044536;28;61903;-74
2022/06/24 08:00:43;;;;;;;;;0.00;0.00;;;;;-146.67;32.10;72264.50;5024557;28;64700;-75
2022/06/24 08:03:08;;;;;;;;;0.00;0.00;;;;;-146.67;32.21;72268.50;5043689;28;61963;-75
2022/06/24 08:05:34;;;;;;;;;0.00;0.00;;;;;-146.67;32.16;72234.59;5043968;28;61889;-75
2022/06/24 08:07:59;;;;;;;;;0.00;0.00;;;;;-146.67;32.47;72198.66;5044302;28;62087;-75
2022/06/24 08:10:24;;;;;;;;;0.00;0.00;;;;;-146.67;30.81;72160.75;5043192;28;62056;-75
2022/06/24 08:12:50;;;;;;;;;0.00;0.00;;;;;-146.67;31.67;72138.81;5043750;28;61761;-75
2022/06/24 08:15:17;;;;;;;;;0.00;0.00;;;;;-146.67;31.85;72118.84;5043821;28;61820;-75
2022/06/24 08:17:42;;;;;;;;;0.00;0.00;;;;;-146.67;30.81;72120.84;5043766;28;62106;-75
2022/06/24 08:20:09;;;;;;;;;0.00;0.00;;;;;-146.67;31.55;72110.88;5025354;28;63220;-75
2022/06/24 08:22:34;;;;;;;;;0.00;0.00;;;;;-146.67;31.17;72114.88;5042267;28;61928;-76
2022/06/24 08:25:01;;;;;;;;;0.00;0.00;;;;;-146.67;31.07;72132.81;5043570;28;62425;-77
2022/06/24 08:27:27;;;;;;;;;0.00;0.00;;;;;-146.67;30.63;72132.81;5022846;28;61811;-76
2022/06/24 08:29:52;;;;;;;;;0.00;0.00;;;;;-146.67;31.02;72148.78;5022394;28;61928;-77
2022/06/24 08:32:18;;;;;;;;;0.00;0.00;;;;;-146.67;30.74;72160.75;5023373;28;61854;-77
2022/06/24 08:34:44;;;;;;;;;0.00;0.00;;;;;-146.67;30.27;72156.75;5023481;28;62096;-74
2022/06/24 08:37:09;;;;;;;;;0.00;0.00;;;;;-146.67;30.32;72154.78;5023946;28;62364;-74
2022/06/24 08:39:34;;;;;;;;;0.00;0.00;;;;;-146.67;30.38;72140.81;5021393;28;63956;-75
2022/06/24 08:42:03;;;;;;;;;0.00;0.00;;;;;-146.67;30.64;72142.78;5022448;28;61978;-75
2022/06/24 08:44:28;;;;;;;;;0.00;0.00;;;;;-146.67;30.55;72140.81;5023044;28;62662;-74
2022/06/24 08:46:55;;;;;;;;;0.00;0.00;;;;;-146.67;29.88;72148.78;5027228;28;62072;-75
2022/06/24 08:49:20;;;;;;;;;0.00;0.00;;;;;-146.67;29.50;72144.78;5042897;28;61964;-76
2022/06/24 08:51:48;;;;;;;;;0.00;0.00;;;;;-146.67;30.06;72146.78;5024958;28;61934;-75
2022/06/24 08:54:17;;;;;;;;;0.00;0.00;;;;;-146.67;28.94;72134.81;5025134;28;61899;-75
2022/06/24 08:56:43;;;;;;;;;0.00;0.00;;;;;-146.67;29.55;72116.84;5043558;28;61784;-75
2022/06/24 08:59:09;;;;;;;;;0.00;0.00;;;;;-146.67;29.01;72120.84;5023834;28;63611;-75
2022/06/24 09:01:39;;;;;;;;;0.00;0.00;;;;;-146.67;28.76;72132.81;5012851;28;61790;-76
2022/06/24 09:04:05;;;;;;;;;0.00;0.00;;;;;-146.67;29.41;72116.84;5022929;28;62059;-75
2022/06/24 09:06:39;;;;;;;;;0.00;0.00;;;;;-146.67;28.92;72102.91;5023261;28;61915;-76
2022/06/24 09:09:05;;;;;;;;;0.00;0.00;;;;;-146.67;29.29;72092.91;5004550;28;63781;-75
2022/06/24 09:11:39;;;;;;;;;0.00;0.00;;;;;-146.67;28.98;72070.97;5005332;28;61936;-74
2022/06/24 09:14:06;;;;;;;;;0.00;0.00;;;;;-146.67;29.55;72076.94;5022549;28;61868;-75
2022/06/24 09:16:35;;;;;;;;;0.00;0.00;;;;;-146.67;29.82;72068.97;5022690;28;62277;-75
2022/06/24 09:19:05;;;;;;;;;0.00;0.00;;;;;-146.67;29.27;72043.03;5022018;28;61927;-75
2022/06/24 09:21:39;;;;;;;;;0.00;0.00;;;;;-146.67;28.28;72051.00;5004962;28;61931;-76
2022/06/24 09:24:05;;;;;;;;;0.00;0.00;;;;;-146.67;28.21;72076.94;5022759;28;62127;-74
2022/06/24 09:26:37;;;;;;;;;0.00;0.00;;;;;-146.67;28.26;72092.91;5022693;28;61730;-77
2022/06/24 09:29:09;;;;;;;;;0.00;0.00;;;;;-146.67;28.57;72126.84;4983857;28;63549;-74
2022/06/24 09:31:36;;;;;;;;;0.00;0.00;;;;;-146.67;28.81;72170.72;5002857;28;61943;-74
2022/06/24 09:34:18;;;;;;;;;0.00;0.00;;;;;-146.67;28.44;72204.66;5015860;28;61933;-75
2022/06/24 09:36:46;;;;;;;;;0.00;0.00;;;;;-146.67;29.36;72180.72;5005118;28;62089;-74
2022/06/24 09:39:15;;;;;;;;;0.00;0.00;;;;;-146.67;29.32;72186.69;5021821;28;61765;-75
2022/06/24 09:41:49;;;;;;;;;0.00;0.00;;;;;-146.67;29.30;72188.69;5022289;28;61973;-76
2022/06/24 09:44:17;;;;;;;;;0.00;0.00;;;;;-146.67;29.63;72194.69;5022385;28;61797;-76
2022/06/24 09:46:43;;;;;;;;;0.00;0.00;;;;;-146.67;28.92;72198.66;5004253;28;62164;-76
2022/06/24 09:49:12;;;;;;;;;0.00;0.00;;;;;-146.67;29.14;72204.66;5021634;28;62982;-77
2022/06/24 09:51:39;;;;;;;;;0.00;0.00;;;;;-146.67;29.13;72180.72;5022235;28;62189;-73
2022/06/24 09:54:06;;;;;;;;;0.00;0.00;;;;;-146.67;29.17;72168.72;5022138;28;61809;-75
2022/06/24 09:56:32;;;;;;;;;0.00;0.00;;;;;-146.67;29.18;72146.78;5022164;28;61844;-76
2022/06/24 10:01:45;;;;;;;;;0.00;0.00;;;;;-146.67;28.90;72106.88;5034599;28;62190;-74
2022/06/24 10:04:18;;;;;;;;;0.00;0.00;;;;;-146.67;28.41;72120.84;5023348;28;61961;-75
2022/06/24 10:06:46;;;;;;;;;0.00;0.00;;;;;-146.67;28.75;72160.75;5024358;28;61795;-76
2022/06/24 10:09:12;;;;;;;;;0.00;0.00;;;;;-146.67;28.66;72142.78;5023279;28;64097;-77
2022/06/24 10:11:42;;;;;;;;;0.00;0.00;;;;;-146.67;28.35;72174.72;5023847;28;61921;-76
2022/06/24 10:14:08;;;;;;;;;0.00;0.00;;;;;-146.67;28.77;72152.78;5042006;28;61745;-77
2022/06/24 10:16:35;;;;;;;;;0.00;0.00;;;;;-146.67;28.76;72110.88;5042023;28;61840;-76
2022/06/24 10:19:01;;;;;;;;;0.00;0.00;;;;;-146.67;28.39;72092.91;5040827;28;62456;-76
2022/06/24 10:21:27;;;;;;;;;0.00;0.00;;;;;-146.67;28.67;72108.88;5042098;28;61883;-75
2022/06/24 10:23:53;;;;;;;;;0.00;0.00;;;;;-146.67;28.27;72112.88;5023878;28;61950;-79
2022/06/24 10:26:31;;;;;;;;;0.00;0.00;;;;;-146.67;28.23;72118.84;5041494;28;61843;-77
2022/06/24 10:28:59;;;;;;;;;0.00;0.00;;;;;-146.67;28.58;72134.81;5040799;28;63248;-77
2022/06/24 10:31:37;;;;;;;;;0.00;0.00;;;;;-146.67;28.90;72114.88;5041663;28;62330;-76
2022/06/24 10:34:03;;;;;;;;;0.00;0.00;;;;;-146.67;28.55;72102.91;5041476;28;62391;-77
2022/06/24 10:36:31;;;;;;;;;0.00;0.00;;;;;-146.67;28.92;72110.88;5023945;28;62235;-74
2022/06/24 10:39:10;;;;;;;;;0.00;0.00;;;;;-146.67;28.33;72132.81;5040972;28;61848;-75
2022/06/24 10:41:37;;;;;;;;;0.00;0.00;;;;;-146.67;28.64;72152.78;5042304;28;61882;-75
2022/06/24 10:44:22;;;;;;;;;0.00;0.00;;;;;-146.67;28.87;72150.78;5041571;28;61779;-73
2022/06/24 10:46:47;;;;;;;;;0.00;0.00;;;;;-146.67;28.19;72148.78;5041317;28;62185;-75
2022/06/24 10:49:12;;;;;;;;;0.00;0.00;;;;;-146.67;28.61;72106.88;5022709;28;63157;-75
2022/06/24 10:51:38;;;;;;;;;0.00;0.00;;;;;-146.67;28.27;72080.94;5041093;28;61905;-74
2022/06/24 10:54:06;;;;;;;;;0.00;0.00;;;;;-146.67;27.96;72066.97;5041425;28;62340;-74
2022/06/24 10:56:44;;;;;;;;;0.00;0.00;;;;;-146.67;28.78;72055.00;5041354;28;61941;-74
2022/06/24 10:59:12;;;;;;;;;0.00;0.00;;;;;-146.67;28.50;72098.91;5022434;28;63670;-74
2022/06/24 11:01:42;;;;;;;;;0.00;0.00;;;;;-146.67;28.38;72124.84;5023124;28;62115;-74
2022/06/24 11:04:14;;;;;;;;;0.00;0.00;;;;;-146.67;28.88;72168.72;5041198;28;62160;-74
2022/06/24 11:07:00;;;;;;;;;0.00;0.00;;;;;-146.67;28.58;72188.69;5025742;28;61839;-75
2022/06/24 11:09:28;;;;;;;;;0.00;0.00;;;;;-146.67;30.35;72214.63;5043980;28;61955;-75
2022/06/24 11:11:53;;;;;;;;;0.00;0.00;;;;;-146.67;31.12;72230.59;5026790;28;61916;-74
2022/06/24 11:14:26;;;;;;;;;0.00;0.00;;;;;-146.67;52.95;72386.22;5042885;28;62298;-75
2022/06/24 11:16:51;;;;;;;;;0.00;0.00;;;;;-146.67;52.51;72482.00;5026470;28;61948;-75
2022/06/24 11:19:18;;;;;;;;;0.00;0.00;;;;;-146.67;55.06;72511.94;5042347;28;65101;-75
2022/06/24 11:21:50;;;;;;;;;0.00;0.00;;;;;-146.67;55.11;72503.97;5026474;28;61829;-75
2022/06/24 11:24:20;;;;;;;;;0.00;0.00;;;;;-146.67;54.38;72503.97;5025889;28;61946;-74
2022/06/24 11:27:15;;;;;;;;;0.00;0.00;;;;;-146.67;51.43;72493.97;5026589;28;61868;-74
2022/06/24 11:29:56;;;;;;;;;0.00;0.00;;;;;-146.67;49.93;72460.06;5021613;28;62567;-77